Weather at Earlton (Timiskaming Regional) Airport

Public forecast

Using degrees Celsius for public forecast. Weather courtesy of forecast.io.

Current aviation weather report (METAR) for Earlton (Timiskaming Regional) Airport

Retrieved 2020/10/27 14:00 UTC (45 minutes ago):

CYXR 271400Z AUTO 14004KT 9SM OVC060 M06/M07 A3025 RMK SLP262

Aviation forecast (TAF) for Earlton (Timiskaming Regional) Airport

Retrieved 2020/10/27 12:39 UTC (2 hours ago):

TAF CYXR 271138Z 2712/2724 16005KT P6SM BKN060 FM271800 18010KT P6SM BKN040 RMK FCST BASED ON AUTO OBS NXT FCST BY 271800Z